CAL255 ZUGY-NZAA
Flight info
| Callsign | CAL255 |
|---|---|
| Flight time | N/A |
| Altitude | 35100 |
| Route | DAGVO1A DAGVO W682 LAGEX G586 SJG B330 AVPAM A599 POU B330 TAMOT/N0493F370 B330 BIGEX A583 AKOTA W3 IOO W7 LUMVI B473 SAMGE/N0487F390 B473 CS Y177 AKROM Z17 OVRON/N0478F410 A346 SALAG |
| Aircraft | A359/H-SDE2E3GHIJ3J4J5LM1ORWXY/LB1D1 |
Departure
| Time | 2026-05-06 16:48 |
|---|---|
| Airport | Guiyang Longdongbao International Airport (ZUGY) |
Arrival
| Time | N/A |
|---|---|
| Airport | Auckland International Airport (NZAA) |
| Time | Latitude | Longitude | Altitude | Speed | Heading |
|---|---|---|---|---|---|
| 2026-05-06 16:23 | 26.54201 | 106.79802 | 3721 ft | 0 kts | 51° |
| 2026-05-06 16:40 | 26.54211 | 106.79815 | 3721 ft | 4 kts | 50° |
| 2026-05-06 16:40 | 26.54233 | 106.79848 | 3728 ft | 7 kts | 57° |
| 2026-05-06 16:40 | 26.54244 | 106.79907 | 3722 ft | 9 kts | 90° |
| 2026-05-06 16:41 | 26.54231 | 106.79979 | 3725 ft | 9 kts | 119° |
| 2026-05-06 16:41 | 26.54203 | 106.79993 | 3729 ft | 4 kts | 175° |
| 2026-05-06 16:41 | 26.54154 | 106.79992 | 3727 ft | 8 kts | 188° |
| 2026-05-06 16:41 | 26.54110 | 106.79985 | 3725 ft | 11 kts | 188° |
| 2026-05-06 16:42 | 26.54025 | 106.79970 | 3728 ft | 14 kts | 189° |
| 2026-05-06 16:42 | 26.53919 | 106.79948 | 3729 ft | 17 kts | 191° |
| 2026-05-06 16:42 | 26.53814 | 106.79927 | 3725 ft | 14 kts | 188° |
| 2026-05-06 16:42 | 26.53729 | 106.79912 | 3727 ft | 11 kts | 191° |
| 2026-05-06 16:43 | 26.53666 | 106.79899 | 3726 ft | 8 kts | 190° |
| 2026-05-06 16:43 | 26.53604 | 106.79887 | 3725 ft | 10 kts | 189° |
| 2026-05-06 16:43 | 26.53523 | 106.79873 | 3727 ft | 14 kts | 188° |
| 2026-05-06 16:43 | 26.53405 | 106.79850 | 3730 ft | 18 kts | 189° |
| 2026-05-06 16:44 | 26.53285 | 106.79827 | 3726 ft | 17 kts | 189° |
| 2026-05-06 16:44 | 26.53175 | 106.79806 | 3728 ft | 15 kts | 190° |
| 2026-05-06 16:44 | 26.53073 | 106.79786 | 3726 ft | 14 kts | 190° |
| 2026-05-06 16:44 | 26.52968 | 106.79765 | 3727 ft | 17 kts | 190° |
| 2026-05-06 16:45 | 26.52842 | 106.79739 | 3725 ft | 20 kts | 190° |
| 2026-05-06 16:45 | 26.52698 | 106.79710 | 3726 ft | 22 kts | 190° |
| 2026-05-06 16:45 | 26.52540 | 106.79679 | 3725 ft | 22 kts | 189° |
| 2026-05-06 16:45 | 26.52443 | 106.79688 | 3732 ft | 9 kts | 140° |
| 2026-05-06 16:46 | 26.52424 | 106.79733 | 3731 ft | 6 kts | 107° |
| 2026-05-06 16:46 | 26.52417 | 106.79775 | 3731 ft | 5 kts | 98° |
| 2026-05-06 16:46 | 26.52415 | 106.79815 | 3736 ft | 6 kts | 87° |
| 2026-05-06 16:46 | 26.52436 | 106.79845 | 3738 ft | 3 kts | 25° |
| 2026-05-06 16:47 | 26.52464 | 106.79854 | 3737 ft | 0 kts | 12° |
| 2026-05-06 16:47 | 26.52467 | 106.79855 | 3737 ft | 6 kts | 12° |
| 2026-05-06 16:47 | 26.52743 | 106.79910 | 3736 ft | 74 kts | 9° |
| 2026-05-06 16:47 | 26.53466 | 106.80045 | 3734 ft | 136 kts | 8° |
| 2026-05-06 16:48 | 26.54550 | 106.80262 | 3887 ft | 171 kts | 7° |
| 2026-05-06 16:48 | 26.55713 | 106.80488 | 4671 ft | 167 kts | 8° |
| 2026-05-06 16:48 | 26.56915 | 106.80734 | 5244 ft | 180 kts | 7° |
| 2026-05-06 16:48 | 26.58153 | 106.80971 | 5569 ft | 185 kts | 6° |
| 2026-05-06 16:49 | 26.59469 | 106.81200 | 5758 ft | 196 kts | 7° |
| 2026-05-06 16:49 | 26.60829 | 106.81436 | 6056 ft | 201 kts | 8° |
| 2026-05-06 16:49 | 26.62244 | 106.81701 | 6319 ft | 210 kts | 8° |
| 2026-05-06 16:49 | 26.63585 | 106.82200 | 6538 ft | 222 kts | 25° |
| 2026-05-06 16:50 | 26.64740 | 106.83430 | 6730 ft | 241 kts | 56° |
| 2026-05-06 16:50 | 26.65198 | 106.85287 | 7073 ft | 258 kts | 85° |
| 2026-05-06 16:50 | 26.65109 | 106.87295 | 7496 ft | 265 kts | 91° |
| 2026-05-06 16:50 | 26.64939 | 106.89350 | 7966 ft | 265 kts | 92° |
| 2026-05-06 16:51 | 26.64779 | 106.91423 | 8353 ft | 270 kts | 91° |
| 2026-05-06 16:51 | 26.64635 | 106.93529 | 8780 ft | 274 kts | 91° |
| 2026-05-06 16:51 | 26.64497 | 106.95674 | 9273 ft | 276 kts | 92° |
| 2026-05-06 16:51 | 26.64356 | 106.97812 | 9727 ft | 279 kts | 92° |
| 2026-05-06 16:52 | 26.64213 | 106.99999 | 10176 ft | 281 kts | 92° |
| 2026-05-06 16:52 | 26.64074 | 107.02187 | 10600 ft | 284 kts | 93° |
| 2026-05-06 16:52 | 26.63934 | 107.04399 | 10999 ft | 286 kts | 93° |
| 2026-05-06 16:52 | 26.63793 | 107.06629 | 11415 ft | 288 kts | 93° |
| 2026-05-06 16:53 | 26.63650 | 107.08875 | 11822 ft | 291 kts | 93° |
| 2026-05-06 16:53 | 26.63507 | 107.11137 | 12258 ft | 293 kts | 94° |
| 2026-05-06 16:53 | 26.63340 | 107.13414 | 12658 ft | 296 kts | 97° |
| 2026-05-06 16:53 | 26.62783 | 107.15610 | 12961 ft | 301 kts | 114° |
| 2026-05-06 16:54 | 26.61893 | 107.17772 | 13174 ft | 311 kts | 117° |
| 2026-05-06 16:54 | 26.60932 | 107.19990 | 13388 ft | 321 kts | 117° |
| 2026-05-06 16:54 | 26.59951 | 107.22272 | 13592 ft | 330 kts | 116° |
| 2026-05-06 16:54 | 26.58950 | 107.24619 | 13813 ft | 339 kts | 116° |
| 2026-05-06 16:55 | 26.57926 | 107.27030 | 14024 ft | 348 kts | 116° |
| 2026-05-06 16:55 | 26.56880 | 107.29503 | 14217 ft | 356 kts | 116° |
| 2026-05-06 16:55 | 26.55800 | 107.32051 | 14419 ft | 365 kts | 116° |
| 2026-05-06 16:55 | 26.54706 | 107.34635 | 14603 ft | 373 kts | 116° |
| 2026-05-06 16:56 | 26.53585 | 107.37280 | 14784 ft | 381 kts | 116° |
| 2026-05-06 16:56 | 26.52438 | 107.39986 | 14964 ft | 389 kts | 116° |
| 2026-05-06 16:56 | 26.51285 | 107.42708 | 15118 ft | 396 kts | 116° |
| 2026-05-06 16:56 | 26.50079 | 107.45550 | 15314 ft | 402 kts | 116° |
| 2026-05-06 16:57 | 26.48879 | 107.48376 | 15573 ft | 406 kts | 116° |
| 2026-05-06 16:57 | 26.47761 | 107.51254 | 15842 ft | 411 kts | 109° |
| 2026-05-06 16:57 | 26.47171 | 107.54379 | 16156 ft | 413 kts | 97° |
| 2026-05-06 16:57 | 26.46903 | 107.57593 | 16424 ft | 417 kts | 95° |
| 2026-05-06 16:58 | 26.46663 | 107.60839 | 16717 ft | 420 kts | 95° |
| 2026-05-06 16:58 | 26.46414 | 107.64089 | 17016 ft | 423 kts | 95° |
| 2026-05-06 16:58 | 26.46155 | 107.67376 | 17301 ft | 425 kts | 95° |
| 2026-05-06 16:58 | 26.45891 | 107.70676 | 17595 ft | 428 kts | 95° |
| 2026-05-06 16:59 | 26.45607 | 107.73990 | 17885 ft | 431 kts | 97° |
| 2026-05-06 16:59 | 26.44944 | 107.77256 | 18153 ft | 432 kts | 111° |
| 2026-05-06 16:59 | 26.43600 | 107.80241 | 18393 ft | 432 kts | 124° |
| 2026-05-06 16:59 | 26.41855 | 107.82976 | 18629 ft | 433 kts | 130° |
| 2026-05-06 17:00 | 26.39937 | 107.85581 | 18862 ft | 435 kts | 133° |
| 2026-05-06 17:00 | 26.37934 | 107.88128 | 19092 ft | 437 kts | 134° |
| 2026-05-06 17:00 | 26.35930 | 107.90624 | 19342 ft | 439 kts | 134° |
| 2026-05-06 17:00 | 26.33857 | 107.93215 | 19560 ft | 443 kts | 134° |
| 2026-05-06 17:01 | 26.31846 | 107.95758 | 19810 ft | 445 kts | 133° |
| 2026-05-06 17:01 | 26.29805 | 107.98371 | 20051 ft | 446 kts | 133° |
| 2026-05-06 17:01 | 26.27782 | 108.00981 | 20281 ft | 449 kts | 133° |
| 2026-05-06 17:01 | 26.25733 | 108.03632 | 20502 ft | 451 kts | 133° |
| 2026-05-06 17:02 | 26.23684 | 108.06289 | 20715 ft | 453 kts | 133° |
| 2026-05-06 17:02 | 26.21628 | 108.08953 | 21141 ft | 450 kts | 132° |
| 2026-05-06 17:02 | 26.19592 | 108.11591 | 21448 ft | 450 kts | 132° |
| 2026-05-06 17:02 | 26.17544 | 108.14243 | 21625 ft | 453 kts | 132° |
| 2026-05-06 17:03 | 26.15478 | 108.16914 | 21844 ft | 455 kts | 133° |
| 2026-05-06 17:03 | 26.13405 | 108.19592 | 22051 ft | 457 kts | 133° |
| 2026-05-06 17:03 | 26.11323 | 108.22279 | 22274 ft | 459 kts | 133° |
| 2026-05-06 17:03 | 26.09258 | 108.24942 | 22447 ft | 462 kts | 133° |
| 2026-05-06 17:04 | 26.07156 | 108.27651 | 22697 ft | 462 kts | 133° |
| 2026-05-06 17:04 | 26.05051 | 108.30365 | 22852 ft | 466 kts | 134° |
| 2026-05-06 17:04 | 26.02925 | 108.33101 | 23006 ft | 469 kts | 134° |
| 2026-05-06 17:04 | 26.00785 | 108.35852 | 23220 ft | 470 kts | 134° |
| 2026-05-06 17:05 | 25.98632 | 108.38617 | 23408 ft | 472 kts | 134° |
| 2026-05-06 17:05 | 25.96483 | 108.41376 | 23631 ft | 473 kts | 134° |
| 2026-05-06 17:05 | 25.94328 | 108.44145 | 23827 ft | 473 kts | 134° |
| 2026-05-06 17:05 | 25.92171 | 108.46912 | 23997 ft | 475 kts | 134° |
| 2026-05-06 17:06 | 25.90011 | 108.49683 | 24184 ft | 476 kts | 134° |
| 2026-05-06 17:06 | 25.87864 | 108.52434 | 24371 ft | 477 kts | 134° |
| 2026-05-06 17:06 | 25.85687 | 108.55224 | 24558 ft | 478 kts | 134° |
| 2026-05-06 17:06 | 25.83508 | 108.58015 | 24728 ft | 479 kts | 134° |
| 2026-05-06 17:07 | 25.81315 | 108.60819 | 24898 ft | 481 kts | 134° |
| 2026-05-06 17:07 | 25.79123 | 108.63621 | 25039 ft | 483 kts | 134° |
| 2026-05-06 17:07 | 25.76910 | 108.66448 | 25231 ft | 483 kts | 134° |
| 2026-05-06 17:07 | 25.74703 | 108.69267 | 25415 ft | 484 kts | 134° |
| 2026-05-06 17:08 | 25.72490 | 108.72092 | 25579 ft | 486 kts | 134° |
| 2026-05-06 17:08 | 25.70269 | 108.74924 | 25755 ft | 487 kts | 134° |
| 2026-05-06 17:08 | 25.68042 | 108.77762 | 25911 ft | 489 kts | 134° |
| 2026-05-06 17:08 | 25.65808 | 108.80609 | 26083 ft | 490 kts | 134° |
| 2026-05-06 17:09 | 25.63572 | 108.83456 | 26241 ft | 491 kts | 134° |
| 2026-05-06 17:09 | 25.61334 | 108.86303 | 26442 ft | 492 kts | 134° |
| 2026-05-06 17:09 | 25.59083 | 108.89164 | 26615 ft | 493 kts | 134° |
| 2026-05-06 17:09 | 25.56821 | 108.92038 | 26810 ft | 494 kts | 134° |
| 2026-05-06 17:10 | 25.54558 | 108.94912 | 26967 ft | 495 kts | 134° |
| 2026-05-06 17:10 | 25.52298 | 108.97780 | 27122 ft | 497 kts | 134° |
| 2026-05-06 17:10 | 25.50010 | 109.00681 | 27291 ft | 498 kts | 134° |
| 2026-05-06 17:10 | 25.47725 | 109.03577 | 27458 ft | 500 kts | 134° |
| 2026-05-06 17:11 | 25.45441 | 109.06470 | 27675 ft | 500 kts | 134° |
| 2026-05-06 17:11 | 25.43173 | 109.09343 | 27826 ft | 502 kts | 134° |
| 2026-05-06 17:11 | 25.40870 | 109.12257 | 28001 ft | 503 kts | 134° |
| 2026-05-06 17:11 | 25.38563 | 109.15172 | 28170 ft | 504 kts | 134° |
| 2026-05-06 17:12 | 25.36251 | 109.18094 | 28336 ft | 506 kts | 134° |
| 2026-05-06 17:12 | 25.33931 | 109.21023 | 28509 ft | 507 kts | 134° |
| 2026-05-06 17:12 | 25.31600 | 109.23965 | 28685 ft | 508 kts | 134° |
| 2026-05-06 17:12 | 25.29266 | 109.26908 | 28870 ft | 509 kts | 134° |
| 2026-05-06 17:13 | 25.26922 | 109.29862 | 29014 ft | 511 kts | 134° |
| 2026-05-06 17:13 | 25.24582 | 109.32809 | 29205 ft | 512 kts | 134° |
| 2026-05-06 17:13 | 25.22229 | 109.35771 | 29354 ft | 513 kts | 134° |
| 2026-05-06 17:13 | 25.19908 | 109.38688 | 29525 ft | 513 kts | 134° |
| 2026-05-06 17:14 | 25.17517 | 109.41692 | 29636 ft | 516 kts | 134° |
| 2026-05-06 17:14 | 25.12779 | 109.47642 | 29834 ft | 521 kts | 134° |
| 2026-05-06 17:15 | 25.07961 | 109.53685 | 30009 ft | 526 kts | 134° |
| 2026-05-06 17:15 | 25.03101 | 109.59775 | 30141 ft | 531 kts | 134° |
| 2026-05-06 17:16 | 24.98199 | 109.65910 | 30293 ft | 535 kts | 134° |
| 2026-05-06 17:16 | 24.93259 | 109.72082 | 30407 ft | 539 kts | 134° |
| 2026-05-06 17:17 | 24.88287 | 109.78285 | 30595 ft | 541 kts | 134° |
| 2026-05-06 17:17 | 24.85790 | 109.81399 | 30724 ft | 541 kts | 134° |
| 2026-05-06 17:17 | 24.83292 | 109.84512 | 30879 ft | 541 kts | 134° |
| 2026-05-06 17:18 | 24.78334 | 109.90684 | 31110 ft | 542 kts | 134° |
| 2026-05-06 17:18 | 24.75828 | 109.93798 | 31263 ft | 542 kts | 134° |
| 2026-05-06 17:18 | 24.73325 | 109.96907 | 31411 ft | 542 kts | 134° |
| 2026-05-06 17:18 | 24.70829 | 110.00005 | 31569 ft | 542 kts | 134° |
| 2026-05-06 17:19 | 24.68320 | 110.03117 | 31730 ft | 541 kts | 134° |
| 2026-05-06 17:19 | 24.65815 | 110.06224 | 31838 ft | 542 kts | 134° |
| 2026-05-06 17:19 | 24.63307 | 110.09331 | 32008 ft | 542 kts | 134° |
| 2026-05-06 17:19 | 24.60836 | 110.12391 | 32188 ft | 542 kts | 134° |
| 2026-05-06 17:20 | 24.58334 | 110.15488 | 32349 ft | 541 kts | 134° |
| 2026-05-06 17:20 | 24.55839 | 110.18575 | 32519 ft | 541 kts | 134° |
| 2026-05-06 17:20 | 24.53342 | 110.21661 | 32656 ft | 541 kts | 134° |
| 2026-05-06 17:20 | 24.50838 | 110.24754 | 32832 ft | 541 kts | 134° |
| 2026-05-06 17:21 | 24.48336 | 110.27842 | 32998 ft | 541 kts | 134° |
| 2026-05-06 17:21 | 24.45830 | 110.30932 | 33164 ft | 541 kts | 134° |
| 2026-05-06 17:21 | 24.43324 | 110.34021 | 33331 ft | 541 kts | 134° |
| 2026-05-06 17:21 | 24.40825 | 110.37100 | 33518 ft | 540 kts | 134° |
| 2026-05-06 17:22 | 24.38323 | 110.40180 | 33684 ft | 541 kts | 134° |
| 2026-05-06 17:22 | 24.35820 | 110.43260 | 33848 ft | 541 kts | 134° |
| 2026-05-06 17:22 | 24.33315 | 110.46339 | 34032 ft | 541 kts | 134° |
| 2026-05-06 17:22 | 24.30809 | 110.49418 | 34163 ft | 541 kts | 134° |
| 2026-05-06 17:23 | 24.28337 | 110.52456 | 34333 ft | 540 kts | 134° |
| 2026-05-06 17:23 | 24.25839 | 110.55520 | 34489 ft | 540 kts | 134° |
| 2026-05-06 17:23 | 24.23334 | 110.58592 | 34655 ft | 540 kts | 134° |
| 2026-05-06 17:23 | 24.20831 | 110.61659 | 34805 ft | 539 kts | 134° |
| 2026-05-06 17:24 | 24.18323 | 110.64730 | 34965 ft | 539 kts | 134° |
| 2026-05-06 17:24 | 24.13328 | 110.70841 | 35030 ft | 539 kts | 134° |
| 2026-05-06 17:25 | 24.08317 | 110.76965 | 35029 ft | 539 kts | 134° |
| 2026-05-06 17:25 | 24.04145 | 110.82058 | 35026 ft | 539 kts | 134° |
| 2026-05-06 17:26 | 23.99142 | 110.88160 | 35027 ft | 539 kts | 134° |
| 2026-05-06 17:26 | 23.93314 | 110.95256 | 35029 ft | 538 kts | 134° |
| 2026-05-06 17:27 | 23.89153 | 111.00316 | 35029 ft | 538 kts | 134° |
| 2026-05-06 17:27 | 23.83302 | 111.07423 | 35030 ft | 538 kts | 134° |
| 2026-05-06 17:28 | 23.79132 | 111.12481 | 35029 ft | 538 kts | 134° |
| 2026-05-06 17:28 | 23.74124 | 111.18548 | 35031 ft | 538 kts | 134° |
| 2026-05-06 17:29 | 23.69118 | 111.24606 | 35031 ft | 537 kts | 134° |
| 2026-05-06 17:29 | 23.64103 | 111.30667 | 35030 ft | 537 kts | 134° |
| 2026-05-06 17:30 | 23.59120 | 111.36683 | 35028 ft | 537 kts | 134° |
| 2026-05-06 17:30 | 23.54113 | 111.42720 | 35028 ft | 537 kts | 134° |
| 2026-05-06 17:31 | 23.49100 | 111.48757 | 35026 ft | 537 kts | 134° |
| 2026-05-06 17:31 | 23.44083 | 111.54791 | 35031 ft | 537 kts | 134° |
| 2026-05-06 17:32 | 23.39059 | 111.60825 | 35029 ft | 537 kts | 134° |
| 2026-05-06 17:32 | 23.34043 | 111.66844 | 35032 ft | 537 kts | 134° |
| 2026-05-06 17:33 | 23.29025 | 111.72857 | 35035 ft | 536 kts | 134° |
| 2026-05-06 17:33 | 23.24045 | 111.78904 | 35038 ft | 538 kts | 130° |
| 2026-05-06 17:34 | 23.20343 | 111.85906 | 35048 ft | 540 kts | 110° |
| 2026-05-06 17:34 | 23.18277 | 111.93748 | 35039 ft | 541 kts | 102° |
| 2026-05-06 17:35 | 23.16718 | 112.01757 | 35043 ft | 541 kts | 101° |
| 2026-05-06 17:35 | 23.15165 | 112.09747 | 35041 ft | 541 kts | 102° |
| 2026-05-06 17:36 | 23.12695 | 112.21719 | 35047 ft | 541 kts | 103° |
| 2026-05-06 17:36 | 23.11013 | 112.29692 | 35049 ft | 540 kts | 103° |
| 2026-05-06 17:37 | 23.09331 | 112.37648 | 35044 ft | 541 kts | 103° |
| 2026-05-06 17:37 | 23.07656 | 112.45570 | 35047 ft | 540 kts | 103° |
| 2026-05-06 17:38 | 23.06660 | 112.53632 | 35046 ft | 539 kts | 94° |
| 2026-05-06 17:38 | 23.06080 | 112.61768 | 35045 ft | 539 kts | 93° |
| 2026-05-06 17:39 | 23.05557 | 112.69886 | 35046 ft | 539 kts | 93° |
| 2026-05-06 17:39 | 23.05021 | 112.78015 | 35044 ft | 539 kts | 93° |
| 2026-05-06 17:40 | 23.04469 | 112.86125 | 35045 ft | 539 kts | 93° |
| 2026-05-06 17:40 | 23.03906 | 112.94261 | 35044 ft | 539 kts | 93° |
| 2026-05-06 17:41 | 23.03344 | 113.02316 | 35045 ft | 539 kts | 93° |
| 2026-05-06 17:41 | 23.02754 | 113.10425 | 35042 ft | 539 kts | 95° |
| 2026-05-06 17:42 | 23.00800 | 113.18267 | 35046 ft | 539 kts | 116° |
| 2026-05-06 17:42 | 22.98929 | 113.21774 | 35044 ft | 537 kts | 127° |
| 2026-05-06 17:42 | 22.96518 | 113.24854 | 35048 ft | 535 kts | 136° |
| 2026-05-06 17:43 | 22.91164 | 113.30482 | 35045 ft | 535 kts | 139° |
| 2026-05-06 17:43 | 22.85728 | 113.35933 | 35043 ft | 536 kts | 139° |
| 2026-05-06 17:44 | 22.80270 | 113.41441 | 35046 ft | 536 kts | 139° |
| 2026-05-06 17:44 | 22.74839 | 113.46974 | 35046 ft | 536 kts | 139° |
| 2026-05-06 17:45 | 22.69403 | 113.52526 | 35052 ft | 536 kts | 138° |
| 2026-05-06 17:45 | 22.63979 | 113.58061 | 35057 ft | 536 kts | 138° |
| 2026-05-06 17:46 | 22.58550 | 113.63592 | 35059 ft | 536 kts | 139° |
| 2026-05-06 17:46 | 22.53110 | 113.69126 | 35061 ft | 535 kts | 139° |
| 2026-05-06 17:47 | 22.47708 | 113.74614 | 35058 ft | 535 kts | 139° |
| 2026-05-06 17:47 | 22.42279 | 113.80125 | 35060 ft | 535 kts | 139° |
| 2026-05-06 17:48 | 22.36858 | 113.85622 | 35067 ft | 534 kts | 139° |
| 2026-05-06 17:48 | 22.31604 | 113.91247 | 35067 ft | 535 kts | 134° |
| 2026-05-06 17:49 | 22.26650 | 113.97249 | 35067 ft | 535 kts | 133° |
| 2026-05-06 17:49 | 22.21385 | 114.02920 | 35062 ft | 531 kts | 146° |
| 2026-05-06 17:50 | 22.15147 | 114.07015 | 35057 ft | 528 kts | 154° |
| 2026-05-06 17:50 | 22.08657 | 114.10735 | 35051 ft | 527 kts | 155° |
| 2026-05-06 17:51 | 22.02135 | 114.14409 | 35053 ft | 527 kts | 155° |
| 2026-05-06 17:51 | 21.95658 | 114.18092 | 35050 ft | 527 kts | 154° |
| 2026-05-06 17:52 | 21.89175 | 114.21799 | 35054 ft | 526 kts | 154° |
| 2026-05-06 17:52 | 21.82746 | 114.25478 | 35052 ft | 526 kts | 154° |
| 2026-05-06 17:53 | 21.76288 | 114.29170 | 35051 ft | 525 kts | 154° |
| 2026-05-06 17:53 | 21.69838 | 114.32851 | 35051 ft | 525 kts | 154° |
| 2026-05-06 17:54 | 21.63380 | 114.36532 | 35049 ft | 524 kts | 154° |
| 2026-05-06 17:54 | 21.56929 | 114.40206 | 35049 ft | 524 kts | 154° |
| 2026-05-06 17:55 | 21.50551 | 114.43835 | 35046 ft | 524 kts | 154° |
| 2026-05-06 17:55 | 21.44858 | 114.47071 | 35045 ft | 524 kts | 154° |
| 2026-05-06 17:56 | 21.38446 | 114.50712 | 35044 ft | 524 kts | 154° |
| 2026-05-06 17:56 | 21.32007 | 114.54365 | 35045 ft | 524 kts | 154° |
| 2026-05-06 17:57 | 21.25547 | 114.58026 | 35044 ft | 524 kts | 154° |
| 2026-05-06 17:57 | 21.19100 | 114.61676 | 35041 ft | 524 kts | 154° |
| 2026-05-06 17:58 | 21.12654 | 114.65322 | 35038 ft | 524 kts | 154° |
| 2026-05-06 17:58 | 21.06245 | 114.68944 | 35036 ft | 524 kts | 154° |
| 2026-05-06 17:59 | 20.99788 | 114.72588 | 35039 ft | 523 kts | 154° |
| 2026-05-06 17:59 | 20.93350 | 114.76219 | 35037 ft | 523 kts | 154° |
| 2026-05-06 18:00 | 20.86942 | 114.79829 | 35039 ft | 523 kts | 154° |
| 2026-05-06 18:00 | 20.80503 | 114.83453 | 35035 ft | 522 kts | 154° |
| 2026-05-06 18:01 | 20.74066 | 114.87073 | 35032 ft | 522 kts | 154° |
| 2026-05-06 18:01 | 20.67643 | 114.90681 | 35033 ft | 522 kts | 154° |
| 2026-05-06 18:02 | 20.61251 | 114.94269 | 35037 ft | 522 kts | 154° |
| 2026-05-06 18:02 | 20.54812 | 114.97879 | 35036 ft | 522 kts | 154° |
| 2026-05-06 18:03 | 20.48383 | 115.01479 | 35031 ft | 521 kts | 154° |
| 2026-05-06 18:03 | 20.42003 | 115.05050 | 35031 ft | 521 kts | 154° |
| 2026-05-06 18:04 | 20.35581 | 115.08641 | 35027 ft | 521 kts | 154° |
| 2026-05-06 18:04 | 20.29154 | 115.12230 | 35022 ft | 521 kts | 154° |
| 2026-05-06 18:05 | 20.22723 | 115.15819 | 35024 ft | 521 kts | 154° |
| 2026-05-06 18:05 | 20.16300 | 115.19399 | 35026 ft | 521 kts | 154° |
| 2026-05-06 18:06 | 20.09872 | 115.22980 | 35022 ft | 521 kts | 154° |
| 2026-05-06 18:06 | 20.03450 | 115.26553 | 35022 ft | 521 kts | 154° |
| 2026-05-06 18:07 | 19.97025 | 115.30125 | 35016 ft | 521 kts | 154° |
| 2026-05-06 18:07 | 19.90630 | 115.33677 | 35021 ft | 521 kts | 154° |
| 2026-05-06 18:08 | 19.84203 | 115.37244 | 35020 ft | 521 kts | 154° |
| 2026-05-06 18:08 | 19.77770 | 115.40811 | 35019 ft | 521 kts | 154° |
| 2026-05-06 18:09 | 19.71346 | 115.44369 | 35013 ft | 520 kts | 154° |
| 2026-05-06 18:09 | 19.64925 | 115.47922 | 35011 ft | 520 kts | 154° |
| 2026-05-06 18:10 | 19.58501 | 115.51474 | 35011 ft | 520 kts | 154° |
| 2026-05-06 18:10 | 19.52117 | 115.55000 | 35014 ft | 520 kts | 154° |
| 2026-05-06 18:11 | 19.46740 | 115.57968 | 35015 ft | 520 kts | 154° |
| 2026-05-06 18:11 | 19.39269 | 115.62088 | 35012 ft | 520 kts | 154° |
| 2026-05-06 18:12 | 19.32853 | 115.65623 | 35014 ft | 520 kts | 154° |
| 2026-05-06 18:12 | 19.26429 | 115.69159 | 35014 ft | 519 kts | 154° |
| 2026-05-06 18:13 | 19.20043 | 115.72670 | 35009 ft | 520 kts | 154° |
| 2026-05-06 18:13 | 19.13628 | 115.76195 | 35005 ft | 519 kts | 154° |
| 2026-05-06 18:14 | 19.07144 | 115.79754 | 35014 ft | 527 kts | 154° |
| 2026-05-06 18:14 | 19.00634 | 115.83324 | 35014 ft | 533 kts | 154° |
| 2026-05-06 18:15 | 18.94028 | 115.86949 | 35001 ft | 535 kts | 153° |
| 2026-05-06 18:15 | 18.88527 | 115.89964 | 35010 ft | 535 kts | 154° |
| 2026-05-06 18:16 | 18.81909 | 115.93587 | 35005 ft | 535 kts | 154° |
| 2026-05-06 18:16 | 18.75297 | 115.97204 | 34997 ft | 535 kts | 153° |
| 2026-05-06 18:17 | 18.68697 | 116.00813 | 34994 ft | 535 kts | 153° |
| 2026-05-06 18:17 | 18.62125 | 116.04402 | 35003 ft | 535 kts | 154° |
| 2026-05-06 18:18 | 18.55513 | 116.08010 | 35001 ft | 535 kts | 154° |
| 2026-05-06 18:18 | 18.48902 | 116.11615 | 34986 ft | 534 kts | 154° |
| 2026-05-06 18:19 | 18.42297 | 116.15214 | 35001 ft | 534 kts | 154° |
| 2026-05-06 18:19 | 18.35692 | 116.18809 | 35000 ft | 534 kts | 154° |
| 2026-05-06 18:20 | 18.29096 | 116.22396 | 34999 ft | 534 kts | 154° |
| 2026-05-06 18:20 | 18.22497 | 116.25981 | 35001 ft | 533 kts | 154° |
| 2026-05-06 18:21 | 18.15899 | 116.29563 | 34996 ft | 533 kts | 154° |
| 2026-05-06 18:21 | 18.09346 | 116.33117 | 35003 ft | 533 kts | 154° |
| 2026-05-06 18:22 | 18.02757 | 116.36688 | 34992 ft | 532 kts | 154° |
| 2026-05-06 18:22 | 17.96168 | 116.40256 | 34993 ft | 532 kts | 154° |
| 2026-05-06 18:23 | 17.89566 | 116.43828 | 34992 ft | 532 kts | 154° |
| 2026-05-06 18:23 | 17.82987 | 116.47385 | 34992 ft | 532 kts | 154° |
| 2026-05-06 18:24 | 17.77551 | 116.50322 | 34992 ft | 531 kts | 154° |
| 2026-05-06 18:24 | 17.69871 | 116.54474 | 34993 ft | 531 kts | 154° |
| 2026-05-06 18:25 | 17.63298 | 116.58013 | 34988 ft | 531 kts | 154° |
| 2026-05-06 18:25 | 17.56763 | 116.61531 | 34990 ft | 530 kts | 154° |
| 2026-05-06 18:26 | 17.50205 | 116.65060 | 34993 ft | 530 kts | 154° |
| 2026-05-06 18:26 | 17.43640 | 116.68591 | 34989 ft | 530 kts | 154° |
| 2026-05-06 18:27 | 17.37068 | 116.72124 | 34985 ft | 530 kts | 154° |
| 2026-05-06 18:27 | 17.30509 | 116.75646 | 34989 ft | 530 kts | 154° |
| 2026-05-06 18:28 | 17.23984 | 116.79147 | 34987 ft | 530 kts | 154° |
| 2026-05-06 18:28 | 17.17425 | 116.82664 | 34984 ft | 529 kts | 154° |
| 2026-05-06 18:29 | 17.10865 | 116.86178 | 34989 ft | 529 kts | 154° |
| 2026-05-06 18:29 | 17.04310 | 116.89686 | 34989 ft | 529 kts | 154° |
| 2026-05-06 18:30 | 16.97759 | 116.93190 | 34986 ft | 529 kts | 154° |
| 2026-05-06 18:30 | 16.91205 | 116.96693 | 34986 ft | 529 kts | 154° |
| 2026-05-06 18:31 | 16.84701 | 117.00166 | 34986 ft | 529 kts | 154° |
| 2026-05-06 18:31 | 16.78149 | 117.03662 | 34987 ft | 528 kts | 154° |
| 2026-05-06 18:32 | 16.71596 | 117.07156 | 34985 ft | 528 kts | 154° |
| 2026-05-06 18:32 | 16.65039 | 117.10650 | 34984 ft | 528 kts | 154° |
| 2026-05-06 18:33 | 16.58491 | 117.14135 | 34984 ft | 528 kts | 154° |
| 2026-05-06 18:33 | 16.51946 | 117.17618 | 34982 ft | 528 kts | 154° |
| 2026-05-06 18:34 | 16.45731 | 117.21600 | 34985 ft | 530 kts | 141° |
| 2026-05-06 18:34 | 16.40485 | 117.27016 | 34982 ft | 531 kts | 134° |
| 2026-05-06 18:35 | 16.35498 | 117.32692 | 34979 ft | 532 kts | 133° |
| 2026-05-06 18:35 | 16.30528 | 117.38399 | 34978 ft | 532 kts | 133° |
| 2026-05-06 18:36 | 16.25535 | 117.44081 | 34978 ft | 532 kts | 133° |
| 2026-05-06 18:36 | 16.20520 | 117.49752 | 34978 ft | 532 kts | 133° |
| 2026-05-06 18:37 | 16.15535 | 117.55379 | 34979 ft | 531 kts | 133° |
| 2026-05-06 18:37 | 16.10529 | 117.61027 | 34978 ft | 532 kts | 133° |
| 2026-05-06 18:38 | 16.05507 | 117.66690 | 34976 ft | 532 kts | 133° |
| 2026-05-06 18:38 | 16.00493 | 117.72340 | 34976 ft | 531 kts | 133° |
| 2026-05-06 18:39 | 15.95476 | 117.77988 | 34975 ft | 531 kts | 133° |
| 2026-05-06 18:40 | 15.87976 | 117.86423 | 34974 ft | 531 kts | 133° |
| 2026-05-06 18:40 | 15.82955 | 117.92065 | 34974 ft | 531 kts | 133° |
| 2026-05-06 18:41 | 15.77933 | 117.97704 | 34971 ft | 531 kts | 133° |
| 2026-05-06 18:41 | 15.72913 | 118.03336 | 34971 ft | 531 kts | 133° |
| 2026-05-06 18:42 | 15.67896 | 118.08959 | 34974 ft | 531 kts | 133° |
| 2026-05-06 18:42 | 15.62870 | 118.14589 | 34972 ft | 531 kts | 133° |
| 2026-05-06 18:43 | 15.57846 | 118.20212 | 34971 ft | 531 kts | 133° |
| 2026-05-06 18:43 | 15.52863 | 118.25785 | 34967 ft | 531 kts | 133° |
| 2026-05-06 18:44 | 15.47843 | 118.31395 | 34969 ft | 531 kts | 133° |
| 2026-05-06 18:44 | 15.42810 | 118.37016 | 34968 ft | 530 kts | 133° |
| 2026-05-06 18:45 | 15.37781 | 118.42626 | 34968 ft | 530 kts | 133° |
| 2026-05-06 18:45 | 15.32754 | 118.48232 | 34968 ft | 530 kts | 133° |
| 2026-05-06 18:46 | 15.27734 | 118.53825 | 34966 ft | 530 kts | 133° |
| 2026-05-06 18:46 | 15.22746 | 118.59378 | 34960 ft | 530 kts | 133° |
| 2026-05-06 18:47 | 15.17724 | 118.64965 | 34964 ft | 529 kts | 133° |
| 2026-05-06 18:47 | 15.12702 | 118.70547 | 34964 ft | 529 kts | 133° |
| 2026-05-06 18:48 | 15.07678 | 118.76128 | 34962 ft | 529 kts | 133° |
| 2026-05-06 18:48 | 15.02684 | 118.81672 | 34959 ft | 529 kts | 133° |
| 2026-05-06 18:49 | 14.97661 | 118.87243 | 34959 ft | 529 kts | 133° |
| 2026-05-06 18:49 | 14.92640 | 118.92807 | 34962 ft | 529 kts | 133° |
| 2026-05-06 18:50 | 14.87622 | 118.98365 | 34960 ft | 529 kts | 133° |
| 2026-05-06 18:50 | 14.84285 | 119.02059 | 34960 ft | 529 kts | 133° |